sensor_id;sensor_type;location;lat;lon;timestamp;pressure;altitude;pressure_sealevel;temperature;humidity
28344;BME280;15597;50.914;6.638;2023-12-28T00:02:14;100398.41;;;12.46;56.64
28344;BME280;15597;50.914;6.638;2023-12-28T00:04:40;100404.50;;;12.46;56.64
28344;BME280;15597;50.914;6.638;2023-12-28T00:07:05;100410.50;;;12.50;56.82
28344;BME280;15597;50.914;6.638;2023-12-28T00:09:31;100405.16;;;12.53;56.63
28344;BME280;15597;50.914;6.638;2023-12-28T00:11:57;100408.69;;;12.52;56.36
28344;BME280;15597;50.914;6.638;2023-12-28T00:14:23;100419.28;;;12.49;56.88
28344;BME280;15597;50.914;6.638;2023-12-28T00:16:48;100417.47;;;12.51;56.70
28344;BME280;15597;50.914;6.638;2023-12-28T00:19:14;100417.56;;;12.48;56.96
28344;BME280;15597;50.914;6.638;2023-12-28T00:21:40;100406.97;;;12.51;56.68
28344;BME280;15597;50.914;6.638;2023-12-28T00:24:05;100410.50;;;12.50;56.93
28344;BME280;15597;50.914;6.638;2023-12-28T00:26:31;100412.38;;;12.46;56.74
28344;BME280;15597;50.914;6.638;2023-12-28T00:29:03;100416.72;;;12.47;57.21
28344;BME280;15597;50.914;6.638;2023-12-28T00:31:28;100414.94;;;12.48;57.17
28344;BME280;15597;50.914;6.638;2023-12-28T00:33:54;100412.41;;;12.45;57.13
28344;BME280;15597;50.914;6.638;2023-12-28T00:36:19;100415.84;;;12.47;57.54
28344;BME280;15597;50.914;6.638;2023-12-28T00:38:45;100411.50;;;12.46;57.20
28344;BME280;15597;50.914;6.638;2023-12-28T00:41:11;100422.00;;;12.46;57.10
28344;BME280;15597;50.914;6.638;2023-12-28T00:43:37;100427.25;;;12.46;57.42
28344;BME280;15597;50.914;6.638;2023-12-28T00:46:02;100415.00;;;12.46;57.12
28344;BME280;15597;50.914;6.638;2023-12-28T00:48:28;100417.66;;;12.45;57.02
28344;BME280;15597;50.914;6.638;2023-12-28T00:50:53;100423.00;;;12.41;57.53
28344;BME280;15597;50.914;6.638;2023-12-28T00:53:20;100419.56;;;12.41;57.74
28344;BME280;15597;50.914;6.638;2023-12-28T00:55:46;100416.03;;;12.42;57.47
28344;BME280;15597;50.914;6.638;2023-12-28T00:58:12;100428.25;;;12.41;57.54
28344;BME280;15597;50.914;6.638;2023-12-28T01:00:37;100435.22;;;12.42;57.46
28344;BME280;15597;50.914;6.638;2023-12-28T01:03:03;100412.53;;;12.41;57.52
28344;BME280;15597;50.914;6.638;2023-12-28T01:05:30;100413.41;;;12.42;57.77
28344;BME280;15597;50.914;6.638;2023-12-28T01:07:55;100415.03;;;12.45;57.93
28344;BME280;15597;50.914;6.638;2023-12-28T01:10:21;100425.72;;;12.40;57.90
28344;BME280;15597;50.914;6.638;2023-12-28T01:12:46;100419.59;;;12.39;57.85
28344;BME280;15597;50.914;6.638;2023-12-28T01:15:12;100434.31;;;12.44;58.18
28344;BME280;15597;50.914;6.638;2023-12-28T01:17:38;100417.88;;;12.38;58.18
28344;BME280;15597;50.914;6.638;2023-12-28T01:20:04;100434.47;;;12.39;58.00
28344;BME280;15597;50.914;6.638;2023-12-28T01:22:31;100436.13;;;12.41;58.48
28344;BME280;15597;50.914;6.638;2023-12-28T01:24:57;100449.94;;;12.48;58.21
28344;BME280;15597;50.914;6.638;2023-12-28T01:27:23;100449.25;;;12.41;58.07
28344;BME280;15597;50.914;6.638;2023-12-28T01:29:49;100439.53;;;12.45;58.45
28344;BME280;15597;50.914;6.638;2023-12-28T01:32:15;100437.84;;;12.42;58.26
28344;BME280;15597;50.914;6.638;2023-12-28T01:34:41;100450.13;;;12.42;58.46
28344;BME280;15597;50.914;6.638;2023-12-28T01:37:07;100450.03;;;12.45;58.63
28344;BME280;15597;50.914;6.638;2023-12-28T01:39:33;100451.78;;;12.45;58.56
28344;BME280;15597;50.914;6.638;2023-12-28T01:41:58;100443.72;;;12.51;58.52
28344;BME280;15597;50.914;6.638;2023-12-28T01:44:24;100461.38;;;12.46;58.74
28344;BME280;15597;50.914;6.638;2023-12-28T01:46:50;100472.03;;;12.41;58.58
28344;BME280;15597;50.914;6.638;2023-12-28T01:49:16;100464.09;;;12.42;58.57
28344;BME280;15597;50.914;6.638;2023-12-28T01:51:42;100459.75;;;12.41;59.02
28344;BME280;15597;50.914;6.638;2023-12-28T01:54:08;100468.50;;;12.42;58.91
28344;BME280;15597;50.914;6.638;2023-12-28T01:56:34;100465.00;;;12.41;59.31
28344;BME280;15597;50.914;6.638;2023-12-28T01:59:00;100468.50;;;12.42;59.11
28344;BME280;15597;50.914;6.638;2023-12-28T02:01:26;100450.88;;;12.46;58.95
28344;BME280;15597;50.914;6.638;2023-12-28T02:03:52;100460.53;;;12.45;58.91
28344;BME280;15597;50.914;6.638;2023-12-28T02:06:22;100458.72;;;12.47;59.17
28344;BME280;15597;50.914;6.638;2023-12-28T02:08:48;100459.56;;;12.48;59.27
28344;BME280;15597;50.914;6.638;2023-12-28T02:11:14;100461.28;;;12.49;59.02
28344;BME280;15597;50.914;6.638;2023-12-28T02:13:40;100454.31;;;12.48;58.93
28344;BME280;15597;50.914;6.638;2023-12-28T02:18:51;100460.44;;;12.48;59.19
28344;BME280;15597;50.914;6.638;2023-12-28T02:21:20;100459.53;;;12.49;59.16
28344;BME280;15597;50.914;6.638;2023-12-28T02:23:49;100467.34;;;12.51;58.96
28344;BME280;15597;50.914;6.638;2023-12-28T02:26:16;100471.78;;;12.49;59.23
28344;BME280;15597;50.914;6.638;2023-12-28T02:28:42;100473.41;;;12.53;58.92
28344;BME280;15597;50.914;6.638;2023-12-28T02:31:10;100466.31;;;12.55;59.05
28344;BME280;15597;50.914;6.638;2023-12-28T02:33:48;100468.03;;;12.56;58.61
28344;BME280;15597;50.914;6.638;2023-12-28T02:36:18;100466.31;;;12.55;58.64
28344;BME280;15597;50.914;6.638;2023-12-28T02:38:46;100477.81;;;12.52;59.28
28344;BME280;15597;50.914;6.638;2023-12-28T02:41:13;100470.72;;;12.54;58.91
28344;BME280;15597;50.914;6.638;2023-12-28T02:43:38;100476.72;;;12.58;59.04
28344;BME280;15597;50.914;6.638;2023-12-28T02:46:04;100473.25;;;12.57;59.23
28344;BME280;15597;50.914;6.638;2023-12-28T02:48:29;100475.00;;;12.57;59.17
28344;BME280;15597;50.914;6.638;2023-12-28T02:50:55;100464.56;;;12.55;59.18
28344;BME280;15597;50.914;6.638;2023-12-28T02:53:20;100461.84;;;12.59;59.39
28344;BME280;15597;50.914;6.638;2023-12-28T02:55:46;100469.56;;;12.63;59.05
28344;BME280;15597;50.914;6.638;2023-12-28T02:58:12;100466.03;;;12.64;59.02
28344;BME280;15597;50.914;6.638;2023-12-28T03:00:37;100458.97;;;12.66;59.10
28344;BME280;15597;50.914;6.638;2023-12-28T03:03:03;100458.97;;;12.66;58.90
28344;BME280;15597;50.914;6.638;2023-12-28T03:05:29;100465.28;;;12.61;58.95
28344;BME280;15597;50.914;6.638;2023-12-28T03:07:54;100466.13;;;12.61;58.95
28344;BME280;15597;50.914;6.638;2023-12-28T03:10:21;100461.78;;;12.60;58.71
28344;BME280;15597;50.914;6.638;2023-12-28T03:12:46;100441.69;;;12.59;58.88
28344;BME280;15597;50.914;6.638;2023-12-28T03:15:12;100440.84;;;12.59;58.73
28344;BME280;15597;50.914;6.638;2023-12-28T03:17:38;100437.34;;;12.58;58.86
28344;BME280;15597;50.914;6.638;2023-12-28T03:20:03;100447.72;;;12.63;58.64
28344;BME280;15597;50.914;6.638;2023-12-28T03:22:29;100438.06;;;12.63;58.82
28344;BME280;15597;50.914;6.638;2023-12-28T03:24:55;100445.84;;;12.66;58.81
28344;BME280;15597;50.914;6.638;2023-12-28T03:27:20;100451.16;;;12.65;58.14
28344;BME280;15597;50.914;6.638;2023-12-28T03:29:46;100446.00;;;12.62;58.55
28344;BME280;15597;50.914;6.638;2023-12-28T03:32:11;100440.78;;;12.60;58.91
28344;BME280;15597;50.914;6.638;2023-12-28T03:34:37;100438.06;;;12.63;58.58
28344;BME280;15597;50.914;6.638;2023-12-28T03:37:03;100438.16;;;12.60;58.84
28344;BME280;15597;50.914;6.638;2023-12-28T03:39:29;100444.31;;;12.59;58.40
28344;BME280;15597;50.914;6.638;2023-12-28T03:41:55;100453.81;;;12.63;58.87
28344;BME280;15597;50.914;6.638;2023-12-28T03:44:21;100445.03;;;12.64;58.70
28344;BME280;15597;50.914;6.638;2023-12-28T03:46:50;100438.97;;;12.62;58.68
28344;BME280;15597;50.914;6.638;2023-12-28T03:49:20;100443.22;;;12.66;58.46
28344;BME280;15597;50.914;6.638;2023-12-28T03:51:49;100443.41;;;12.60;58.83
28344;BME280;15597;50.914;6.638;2023-12-28T03:54:19;100445.13;;;12.61;58.23
28344;BME280;15597;50.914;6.638;2023-12-28T03:56:46;100438.06;;;12.63;58.60
28344;BME280;15597;50.914;6.638;2023-12-28T03:59:12;100437.22;;;12.63;58.58
28344;BME280;15597;50.914;6.638;2023-12-28T04:01:37;100439.88;;;12.61;58.42
28344;BME280;15597;50.914;6.638;2023-12-28T04:04:03;100446.84;;;12.62;58.40
28344;BME280;15597;50.914;6.638;2023-12-28T04:06:29;100433.72;;;12.62;58.41
28344;BME280;15597;50.914;6.638;2023-12-28T04:08:56;100437.16;;;12.64;58.39
28344;BME280;15597;50.914;6.638;2023-12-28T04:11:21;100431.88;;;12.66;58.33
28344;BME280;15597;50.914;6.638;2023-12-28T04:13:47;100428.38;;;12.65;58.46
28344;BME280;15597;50.914;6.638;2023-12-28T04:16:13;100428.38;;;12.65;58.57
28344;BME280;15597;50.914;6.638;2023-12-28T04:18:40;100424.03;;;12.64;58.31
28344;BME280;15597;50.914;6.638;2023-12-28T04:21:10;100429.28;;;12.64;58.45
28344;BME280;15597;50.914;6.638;2023-12-28T04:23:36;100422.13;;;12.69;58.15
28344;BME280;15597;50.914;6.638;2023-12-28T04:26:02;100430.91;;;12.68;58.17
28344;BME280;15597;50.914;6.638;2023-12-28T04:28:27;100430.06;;;12.68;57.78
28344;BME280;15597;50.914;6.638;2023-12-28T04:30:53;100422.22;;;12.66;58.02
28344;BME280;15597;50.914;6.638;2023-12-28T04:33:18;100429.19;;;12.67;58.24
28344;BME280;15597;50.914;6.638;2023-12-28T04:35:46;100429.19;;;12.67;58.16
28344;BME280;15597;50.914;6.638;2023-12-28T04:38:13;100427.38;;;12.69;57.95
28344;BME280;15597;50.914;6.638;2023-12-28T04:40:39;100435.25;;;12.69;57.82
28344;BME280;15597;50.914;6.638;2023-12-28T04:43:04;100429.00;;;12.74;57.75
28344;BME280;15597;50.914;6.638;2023-12-28T04:45:30;100443.13;;;12.69;57.85
28344;BME280;15597;50.914;6.638;2023-12-28T04:47:55;100446.66;;;12.68;57.69
28344;BME280;15597;50.914;6.638;2023-12-28T04:50:21;100449.34;;;12.67;57.92
28344;BME280;15597;50.914;6.638;2023-12-28T04:52:48;100456.31;;;12.68;58.02
28344;BME280;15597;50.914;6.638;2023-12-28T04:55:14;100462.38;;;12.70;58.03
28344;BME280;15597;50.914;6.638;2023-12-28T04:57:42;100467.56;;;12.71;57.27
28344;BME280;15597;50.914;6.638;2023-12-28T05:00:08;100469.19;;;12.76;57.28
28344;BME280;15597;50.914;6.638;2023-12-28T05:02:34;100470.13;;;12.73;57.15
28344;BME280;15597;50.914;6.638;2023-12-28T05:05:00;100477.00;;;12.77;56.97
28344;BME280;15597;50.914;6.638;2023-12-28T05:07:26;100479.81;;;12.73;56.94
28344;BME280;15597;50.914;6.638;2023-12-28T05:09:51;100484.19;;;12.72;57.00
28344;BME280;15597;50.914;6.638;2023-12-28T05:12:17;100494.69;;;12.72;57.37
28344;BME280;15597;50.914;6.638;2023-12-28T05:14:43;100490.31;;;12.73;57.23
28344;BME280;15597;50.914;6.638;2023-12-28T05:17:08;100486.84;;;12.70;57.27
28344;BME280;15597;50.914;6.638;2023-12-28T05:19:34;100500.03;;;12.69;57.35
28344;BME280;15597;50.914;6.638;2023-12-28T05:21:59;100491.44;;;12.64;57.34
28344;BME280;15597;50.914;6.638;2023-12-28T05:24:29;100500.25;;;12.61;57.54
28344;BME280;15597;50.914;6.638;2023-12-28T05:26:55;100506.31;;;12.63;57.44
28344;BME280;15597;50.914;6.638;2023-12-28T05:29:20;100501.97;;;12.62;57.08
28344;BME280;15597;50.914;6.638;2023-12-28T05:31:46;100497.53;;;12.64;57.08
28344;BME280;15597;50.914;6.638;2023-12-28T05:34:11;100508.13;;;12.61;57.15
28344;BME280;15597;50.914;6.638;2023-12-28T05:36:37;100505.56;;;12.60;57.14
28344;BME280;15597;50.914;6.638;2023-12-28T05:39:02;100509.94;;;12.59;57.17
28344;BME280;15597;50.914;6.638;2023-12-28T05:41:28;100516.91;;;12.60;57.07
28344;BME280;15597;50.914;6.638;2023-12-28T05:43:53;100526.56;;;12.60;57.19
28344;BME280;15597;50.914;6.638;2023-12-28T05:46:19;100531.81;;;12.60;57.15
28344;BME280;15597;50.914;6.638;2023-12-28T05:48:45;100535.28;;;12.60;57.18
28344;BME280;15597;50.914;6.638;2023-12-28T05:51:11;100534.47;;;12.58;57.28
28344;BME280;15597;50.914;6.638;2023-12-28T05:53:36;100534.47;;;12.58;57.41
28344;BME280;15597;50.914;6.638;2023-12-28T05:56:02;100532.56;;;12.63;56.71
28344;BME280;15597;50.914;6.638;2023-12-28T05:58:29;100538.00;;;12.57;57.02
28344;BME280;15597;50.914;6.638;2023-12-28T06:00:55;100543.44;;;12.51;57.58
28344;BME280;15597;50.914;6.638;2023-12-28T06:03:20;100547.84;;;12.50;57.58
28344;BME280;15597;50.914;6.638;2023-12-28T06:05:46;100555.56;;;12.55;57.47
28344;BME280;15597;50.914;6.638;2023-12-28T06:08:11;100535.56;;;12.51;57.43
28344;BME280;15597;50.914;6.638;2023-12-28T06:10:37;100533.75;;;12.53;57.43
28344;BME280;15597;50.914;6.638;2023-12-28T06:13:03;100531.22;;;12.50;57.39
28344;BME280;15597;50.914;6.638;2023-12-28T06:15:28;100538.19;;;12.51;57.61
28344;BME280;15597;50.914;6.638;2023-12-28T06:17:54;100539.88;;;12.53;57.58
28344;BME280;15597;50.914;6.638;2023-12-28T06:20:19;100539.06;;;12.51;57.74
28344;BME280;15597;50.914;6.638;2023-12-28T06:22:45;100535.56;;;12.51;57.40
28344;BME280;15597;50.914;6.638;2023-12-28T06:25:14;100533.81;;;12.51;57.40
28344;BME280;15597;50.914;6.638;2023-12-28T06:27:39;100549.50;;;12.53;57.38
28344;BME280;15597;50.914;6.638;2023-12-28T06:30:06;100538.16;;;12.52;57.59
28344;BME280;15597;50.914;6.638;2023-12-28T06:32:31;100548.69;;;12.51;57.49
28344;BME280;15597;50.914;6.638;2023-12-28T06:34:57;100553.09;;;12.50;57.66
28344;BME280;15597;50.914;6.638;2023-12-28T06:37:22;100553.03;;;12.52;57.70
28344;BME280;15597;50.914;6.638;2023-12-28T06:39:48;100554.75;;;12.53;57.74
28344;BME280;15597;50.914;6.638;2023-12-28T06:42:14;100560.81;;;12.55;57.67
28344;BME280;15597;50.914;6.638;2023-12-28T06:44:40;100559.91;;;12.56;57.68
28344;BME280;15597;50.914;6.638;2023-12-28T06:47:06;100560.81;;;12.55;57.42
28344;BME280;15597;50.914;6.638;2023-12-28T06:49:31;100559.00;;;12.57;57.46
28344;BME280;15597;50.914;6.638;2023-12-28T06:51:56;100557.28;;;12.56;57.25
28344;BME280;15597;50.914;6.638;2023-12-28T06:54:22;100573.91;;;12.56;57.56
28344;BME280;15597;50.914;6.638;2023-12-28T06:56:48;100565.97;;;12.58;57.21
28344;BME280;15597;50.914;6.638;2023-12-28T06:59:14;100554.56;;;12.59;57.49
28344;BME280;15597;50.914;6.638;2023-12-28T07:01:40;100557.19;;;12.59;57.34
28344;BME280;15597;50.914;6.638;2023-12-28T07:04:06;100562.44;;;12.59;57.41
28344;BME280;15597;50.914;6.638;2023-12-28T07:06:32;100558.81;;;12.63;57.43
28344;BME280;15597;50.914;6.638;2023-12-28T07:08:58;100572.81;;;12.64;57.13
28344;BME280;15597;50.914;6.638;2023-12-28T07:11:23;100567.59;;;12.62;57.39
28344;BME280;15597;50.914;6.638;2023-12-28T07:13:49;100568.50;;;12.61;57.50
28344;BME280;15597;50.914;6.638;2023-12-28T07:16:15;100566.78;;;12.60;57.26
28344;BME280;15597;50.914;6.638;2023-12-28T07:18:41;100566.78;;;12.60;57.56
28344;BME280;15597;50.914;6.638;2023-12-28T07:21:07;100564.16;;;12.60;57.45
28344;BME280;15597;50.914;6.638;2023-12-28T07:23:35;100571.19;;;12.60;57.20
28344;BME280;15597;50.914;6.638;2023-12-28T07:26:01;100560.63;;;12.61;57.23
28344;BME280;15597;50.914;6.638;2023-12-28T07:28:27;100569.41;;;12.60;57.03
28344;BME280;15597;50.914;6.638;2023-12-28T07:30:53;100574.75;;;12.57;57.12
28344;BME280;15597;50.914;6.638;2023-12-28T07:33:19;100569.56;;;12.55;57.51
28344;BME280;15597;50.914;6.638;2023-12-28T07:35:45;100582.72;;;12.54;57.11
28344;BME280;15597;50.914;6.638;2023-12-28T07:38:10;100578.38;;;12.53;57.42
28344;BME280;15597;50.914;6.638;2023-12-28T07:40:37;100582.00;;;12.49;57.18
28344;BME280;15597;50.914;6.638;2023-12-28T07:43:03;100577.56;;;12.51;57.32
28344;BME280;15597;50.914;6.638;2023-12-28T07:45:28;100592.50;;;12.49;57.33
28344;BME280;15597;50.914;6.638;2023-12-28T07:47:54;100583.81;;;12.47;57.73
28344;BME280;15597;50.914;6.638;2023-12-28T07:50:20;100604.81;;;12.47;57.55
28344;BME280;15597;50.914;6.638;2023-12-28T07:52:46;100607.41;;;12.48;57.60
28344;BME280;15597;50.914;6.638;2023-12-28T07:55:12;100602.06;;;12.51;57.35
28344;BME280;15597;50.914;6.638;2023-12-28T07:57:38;100607.34;;;12.50;57.74
28344;BME280;15597;50.914;6.638;2023-12-28T08:00:04;100609.06;;;12.51;57.32
28344;BME280;15597;50.914;6.638;2023-12-28T08:02:30;100611.69;;;12.51;57.56
28344;BME280;15597;50.914;6.638;2023-12-28T08:04:56;100612.50;;;12.53;57.62
28344;BME280;15597;50.914;6.638;2023-12-28T08:07:22;100613.28;;;12.56;57.51
28344;BME280;15597;50.914;6.638;2023-12-28T08:09:49;100623.06;;;12.51;57.27
28344;BME280;15597;50.914;6.638;2023-12-28T08:12:15;100628.34;;;12.50;57.29
28344;BME280;15597;50.914;6.638;2023-12-28T08:14:40;100622.28;;;12.48;57.41
28344;BME280;15597;50.914;6.638;2023-12-28T08:17:07;100630.97;;;12.50;57.76
28344;BME280;15597;50.914;6.638;2023-12-28T08:19:34;100627.50;;;12.48;57.43
28344;BME280;15597;50.914;6.638;2023-12-28T08:22:01;100639.72;;;12.49;57.64
28344;BME280;15597;50.914;6.638;2023-12-28T08:24:28;100645.81;;;12.51;57.71
28344;BME280;15597;50.914;6.638;2023-12-28T08:26:54;100648.41;;;12.52;57.39
28344;BME280;15597;50.914;6.638;2023-12-28T08:29:24;100644.88;;;12.53;57.72
28344;BME280;15597;50.914;6.638;2023-12-28T08:31:50;100639.56;;;12.55;57.61
28344;BME280;15597;50.914;6.638;2023-12-28T08:34:17;100644.72;;;12.58;57.21
28344;BME280;15597;50.914;6.638;2023-12-28T08:36:44;100631.84;;;12.49;57.89
28344;BME280;15597;50.914;6.638;2023-12-28T08:39:11;100643.19;;;12.51;57.85
28344;BME280;15597;50.914;6.638;2023-12-28T08:41:37;100638.75;;;12.53;57.59
28344;BME280;15597;50.914;6.638;2023-12-28T08:44:03;100637.75;;;12.57;57.30
28344;BME280;15597;50.914;6.638;2023-12-28T08:46:29;100648.25;;;12.57;57.58
28344;BME280;15597;50.914;6.638;2023-12-28T08:48:54;100644.72;;;12.58;57.74
28344;BME280;15597;50.914;6.638;2023-12-28T08:51:20;100642.00;;;12.61;57.52
28344;BME280;15597;50.914;6.638;2023-12-28T08:53:46;100653.31;;;12.63;57.22
28344;BME280;15597;50.914;6.638;2023-12-28T08:56:22;100647.31;;;12.60;57.24
28344;BME280;15597;50.914;6.638;2023-12-28T08:58:49;100655.13;;;12.61;57.12
28344;BME280;15597;50.914;6.638;2023-12-28T09:01:20;100650.69;;;12.63;57.28
28344;BME280;15597;50.914;6.638;2023-12-28T09:03:50;100650.78;;;12.60;57.48
28344;BME280;15597;50.914;6.638;2023-12-28T09:06:16;100648.97;;;12.62;57.56
28344;BME280;15597;50.914;6.638;2023-12-28T09:08:43;100642.81;;;12.63;57.52
28344;BME280;15597;50.914;6.638;2023-12-28T09:11:13;100648.16;;;12.60;57.23
28344;BME280;15597;50.914;6.638;2023-12-28T09:13:40;100649.69;;;12.67;57.19
28344;BME280;15597;50.914;6.638;2023-12-28T09:16:09;100648.88;;;12.65;57.44
28344;BME280;15597;50.914;6.638;2023-12-28T09:18:35;100651.41;;;12.68;57.24
28344;BME280;15597;50.914;6.638;2023-12-28T09:21:06;100649.69;;;12.67;57.12
28344;BME280;15597;50.914;6.638;2023-12-28T09:23:33;100646.06;;;12.71;57.19
28344;BME280;15597;50.914;6.638;2023-12-28T09:26:03;100649.69;;;12.67;56.91
28344;BME280;15597;50.914;6.638;2023-12-28T09:28:33;100657.53;;;12.69;57.43
28344;BME280;15597;50.914;6.638;2023-12-28T09:31:00;100660.19;;;12.67;57.40
28344;BME280;15597;50.914;6.638;2023-12-28T09:33:25;100666.19;;;12.73;57.15
28344;BME280;15597;50.914;6.638;2023-12-28T09:35:51;100658.31;;;12.73;56.86
28344;BME280;15597;50.914;6.638;2023-12-28T09:38:19;100661.59;;;12.81;56.88
28344;BME280;15597;50.914;6.638;2023-12-28T09:40:46;100655.53;;;12.79;56.96
28344;BME280;15597;50.914;6.638;2023-12-28T09:45:40;100665.22;;;12.77;56.66
28344;BME280;15597;50.914;6.638;2023-12-28T09:48:06;100659.00;;;12.79;56.39
28344;BME280;15597;50.914;6.638;2023-12-28T09:50:32;100663.31;;;12.82;56.49
28344;BME280;15597;50.914;6.638;2023-12-28T09:52:58;100664.22;;;12.81;56.91
28344;BME280;15597;50.914;6.638;2023-12-28T09:55:24;100666.69;;;12.85;56.63
28344;BME280;15597;50.914;6.638;2023-12-28T09:57:52;100666.66;;;12.87;56.75
28344;BME280;15597;50.914;6.638;2023-12-28T10:00:18;100656.09;;;12.89;56.44
28344;BME280;15597;50.914;6.638;2023-12-28T10:02:44;100663.03;;;12.91;56.55
28344;BME280;15597;50.914;6.638;2023-12-28T10:05:14;100657.59;;;12.97;56.58
28344;BME280;15597;50.914;6.638;2023-12-28T10:07:44;100654.06;;;12.98;56.28
28344;BME280;15597;50.914;6.638;2023-12-28T10:10:10;100660.16;;;12.99;56.31
28344;BME280;15597;50.914;6.638;2023-12-28T10:12:37;100655.78;;;12.99;56.43
28344;BME280;15597;50.914;6.638;2023-12-28T10:15:06;100652.16;;;13.04;56.20
28344;BME280;15597;50.914;6.638;2023-12-28T10:17:35;100632.75;;;13.08;56.03
28344;BME280;15597;50.914;6.638;2023-12-28T10:20:03;100645.19;;;13.03;55.99
28344;BME280;15597;50.914;6.638;2023-12-28T10:22:31;100645.19;;;13.03;56.48
28344;BME280;15597;50.914;6.638;2023-12-28T10:24:59;100635.47;;;13.05;55.99
28344;BME280;15597;50.914;6.638;2023-12-28T10:27:26;100623.91;;;13.10;55.65
28344;BME280;15597;50.914;6.638;2023-12-28T10:29:54;100631.78;;;13.10;56.24
28344;BME280;15597;50.914;6.638;2023-12-28T10:32:20;100629.22;;;13.09;55.67
28344;BME280;15597;50.914;6.638;2023-12-28T10:34:46;100631.75;;;13.12;55.81
28344;BME280;15597;50.914;6.638;2023-12-28T10:37:13;100633.56;;;13.10;56.24
28344;BME280;15597;50.914;6.638;2023-12-28T10:39:40;100634.47;;;13.09;55.85
28344;BME280;15597;50.914;6.638;2023-12-28T10:42:13;100635.22;;;13.12;56.35
28344;BME280;15597;50.914;6.638;2023-12-28T10:44:43;100635.09;;;13.17;55.69
28344;BME280;15597;50.914;6.638;2023-12-28T10:47:15;100636.72;;;13.21;55.73
28344;BME280;15597;50.914;6.638;2023-12-28T10:49:44;100634.91;;;13.23;55.53
28344;BME280;15597;50.914;6.638;2023-12-28T10:52:13;100639.44;;;13.18;55.42
28344;BME280;15597;50.914;6.638;2023-12-28T10:54:49;100638.56;;;13.18;55.79
28344;BME280;15597;50.914;6.638;2023-12-28T10:57:40;100633.38;;;13.16;55.75
28344;BME280;15597;50.914;6.638;2023-12-28T11:00:12;100635.91;;;13.19;55.79
28344;BME280;15597;50.914;6.638;2023-12-28T11:02:49;100631.50;;;13.20;55.88
28344;BME280;15597;50.914;6.638;2023-12-28T11:05:19;100623.78;;;13.15;56.24
28344;BME280;15597;50.914;6.638;2023-12-28T11:07:47;100632.25;;;13.23;55.41
28344;BME280;15597;50.914;6.638;2023-12-28T11:10:16;100622.53;;;13.27;55.47
28344;BME280;15597;50.914;6.638;2023-12-28T11:12:43;100619.84;;;13.28;55.64
28344;BME280;15597;50.914;6.638;2023-12-28T11:15:11;100614.28;;;13.38;55.15
28344;BME280;15597;50.914;6.638;2023-12-28T11:17:39;100615.28;;;13.34;55.36
28344;BME280;15597;50.914;6.638;2023-12-28T11:20:05;100614.47;;;13.32;55.39
28344;BME280;15597;50.914;6.638;2023-12-28T11:22:32;100613.44;;;13.37;54.89
28344;BME280;15597;50.914;6.638;2023-12-28T11:24:59;100613.31;;;13.42;55.37
28344;BME280;15597;50.914;6.638;2023-12-28T11:27:33;100610.63;;;13.43;55.06
28344;BME280;15597;50.914;6.638;2023-12-28T11:29:59;100608.75;;;13.47;54.90
28344;BME280;15597;50.914;6.638;2023-12-28T11:32:25;100608.66;;;13.50;54.95
28344;BME280;15597;50.914;6.638;2023-12-28T11:34:57;100605.09;;;13.51;55.26
28344;BME280;15597;50.914;6.638;2023-12-28T11:37:27;100605.81;;;13.56;55.26
28344;BME280;15597;50.914;6.638;2023-12-28T11:39:54;100596.00;;;13.62;54.86
28344;BME280;15597;50.914;6.638;2023-12-28T11:42:23;100596.88;;;13.62;55.36
28344;BME280;15597;50.914;6.638;2023-12-28T11:44:54;100594.19;;;13.64;55.09
28344;BME280;15597;50.914;6.638;2023-12-28T11:47:22;100591.22;;;13.73;55.00
28344;BME280;15597;50.914;6.638;2023-12-28T11:49:49;100591.13;;;13.76;54.99
28344;BME280;15597;50.914;6.638;2023-12-28T11:52:27;100591.75;;;13.84;54.50
28344;BME280;15597;50.914;6.638;2023-12-28T11:54:54;100581.13;;;13.87;53.73
28344;BME280;15597;50.914;6.638;2023-12-28T11:57:20;100588.19;;;13.85;54.09
28344;BME280;15597;50.914;6.638;2023-12-28T11:59:46;100583.88;;;13.83;54.13
28344;BME280;15597;50.914;6.638;2023-12-28T12:02:13;100586.47;;;13.84;54.28
28344;BME280;15597;50.914;6.638;2023-12-28T12:04:39;100586.59;;;13.81;54.29
28344;BME280;15597;50.914;6.638;2023-12-28T12:07:05;100586.53;;;13.83;54.32
28344;BME280;15597;50.914;6.638;2023-12-28T12:09:31;100588.19;;;13.85;54.33
28344;BME280;15597;50.914;6.638;2023-12-28T12:12:01;100582.81;;;13.88;54.06
28344;BME280;15597;50.914;6.638;2023-12-28T12:14:27;100581.13;;;13.87;53.93
28344;BME280;15597;50.914;6.638;2023-12-28T12:16:57;100582.81;;;13.88;54.15
28344;BME280;15597;50.914;6.638;2023-12-28T12:19:24;100590.44;;;13.96;53.72
28344;BME280;15597;50.914;6.638;2023-12-28T12:21:54;100577.00;;;14.04;53.42
28344;BME280;15597;50.914;6.638;2023-12-28T12:24:21;100576.91;;;14.07;53.42
28344;BME280;15597;50.914;6.638;2023-12-28T12:26:47;100572.66;;;14.03;53.59
28344;BME280;15597;50.914;6.638;2023-12-28T12:29:15;100582.16;;;14.07;53.91
28344;BME280;15597;50.914;6.638;2023-12-28T12:31:42;100565.81;;;14.23;52.98
28344;BME280;15597;50.914;6.638;2023-12-28T12:34:10;100560.56;;;14.23;53.17
28344;BME280;15597;50.914;6.638;2023-12-28T12:36:36;100563.06;;;14.26;52.85
28344;BME280;15597;50.914;6.638;2023-12-28T12:39:02;100572.91;;;14.21;53.26
28344;BME280;15597;50.914;6.638;2023-12-28T12:41:32;100565.69;;;14.26;52.93
28344;BME280;15597;50.914;6.638;2023-12-28T12:43:59;100560.47;;;14.24;53.01
28344;BME280;15597;50.914;6.638;2023-12-28T12:46:25;100554.47;;;14.21;53.04
28344;BME280;15597;50.914;6.638;2023-12-28T12:48:58;100556.47;;;14.14;53.80
28344;BME280;15597;50.914;6.638;2023-12-28T12:51:25;100554.72;;;14.14;53.32
28344;BME280;15597;50.914;6.638;2023-12-28T12:53:56;100555.50;;;14.16;53.38